sensor_id;sensor_type;location;lat;lon;timestamp;P1;durP1;ratioP1;P2;durP2;ratioP2
12145;SDS011;6136;47.032;15.398;2023-11-19T00:00:26;12.37;;;6.53;;
12145;SDS011;6136;47.032;15.398;2023-11-19T00:02:55;6.67;;;5.70;;
12145;SDS011;6136;47.032;15.398;2023-11-19T00:05:24;10.00;;;6.77;;
12145;SDS011;6136;47.032;15.398;2023-11-19T00:07:54;8.97;;;6.57;;
12145;SDS011;6136;47.032;15.398;2023-11-19T00:10:22;7.67;;;6.07;;
12145;SDS011;6136;47.032;15.398;2023-11-19T00:12:51;7.93;;;5.87;;
12145;SDS011;6136;47.032;15.398;2023-11-19T00:15:19;7.30;;;5.43;;
12145;SDS011;6136;47.032;15.398;2023-11-19T00:17:47;8.00;;;5.53;;
12145;SDS011;6136;47.032;15.398;2023-11-19T00:20:17;9.03;;;6.13;;
12145;SDS011;6136;47.032;15.398;2023-11-19T00:22:48;12.57;;;6.20;;
12145;SDS011;6136;47.032;15.398;2023-11-19T00:25:19;8.27;;;6.10;;
12145;SDS011;6136;47.032;15.398;2023-11-19T00:27:48;9.90;;;6.50;;
12145;SDS011;6136;47.032;15.398;2023-11-19T00:30:17;11.97;;;6.90;;
12145;SDS011;6136;47.032;15.398;2023-11-19T00:32:46;11.10;;;6.77;;
12145;SDS011;6136;47.032;15.398;2023-11-19T00:35:14;8.03;;;6.13;;
12145;SDS011;6136;47.032;15.398;2023-11-19T00:37:43;10.10;;;6.00;;
12145;SDS011;6136;47.032;15.398;2023-11-19T00:40:14;7.90;;;5.77;;
12145;SDS011;6136;47.032;15.398;2023-11-19T00:42:45;7.43;;;5.90;;
12145;SDS011;6136;47.032;15.398;2023-11-19T00:45:14;16.20;;;8.77;;
12145;SDS011;6136;47.032;15.398;2023-11-19T00:47:43;8.50;;;6.27;;
12145;SDS011;6136;47.032;15.398;2023-11-19T00:50:11;9.70;;;5.90;;
12145;SDS011;6136;47.032;15.398;2023-11-19T00:52:40;7.93;;;5.87;;
12145;SDS011;6136;47.032;15.398;2023-11-19T00:55:08;7.60;;;6.33;;
12145;SDS011;6136;47.032;15.398;2023-11-19T00:57:40;7.03;;;5.27;;
12145;SDS011;6136;47.032;15.398;2023-11-19T01:00:09;6.40;;;5.50;;
12145;SDS011;6136;47.032;15.398;2023-11-19T01:02:46;7.10;;;5.40;;
12145;SDS011;6136;47.032;15.398;2023-11-19T01:05:18;8.50;;;5.43;;
12145;SDS011;6136;47.032;15.398;2023-11-19T01:07:50;8.37;;;5.30;;
12145;SDS011;6136;47.032;15.398;2023-11-19T01:10:21;8.17;;;5.27;;
12145;SDS011;6136;47.032;15.398;2023-11-19T01:12:52;6.53;;;5.37;;
12145;SDS011;6136;47.032;15.398;2023-11-19T01:15:21;8.03;;;5.13;;
12145;SDS011;6136;47.032;15.398;2023-11-19T01:17:50;7.07;;;4.90;;
12145;SDS011;6136;47.032;15.398;2023-11-19T01:20:20;6.30;;;4.93;;
12145;SDS011;6136;47.032;15.398;2023-11-19T01:22:48;7.57;;;5.63;;
12145;SDS011;6136;47.032;15.398;2023-11-19T01:25:17;10.13;;;7.17;;
12145;SDS011;6136;47.032;15.398;2023-11-19T01:27:46;8.10;;;4.80;;
12145;SDS011;6136;47.032;15.398;2023-11-19T01:30:16;7.13;;;4.80;;
12145;SDS011;6136;47.032;15.398;2023-11-19T01:32:48;6.93;;;5.00;;
12145;SDS011;6136;47.032;15.398;2023-11-19T01:35:17;5.90;;;4.53;;
12145;SDS011;6136;47.032;15.398;2023-11-19T01:37:45;9.03;;;5.67;;
12145;SDS011;6136;47.032;15.398;2023-11-19T01:40:13;8.90;;;5.60;;
12145;SDS011;6136;47.032;15.398;2023-11-19T01:42:43;6.27;;;4.93;;
12145;SDS011;6136;47.032;15.398;2023-11-19T01:45:11;8.37;;;5.27;;
12145;SDS011;6136;47.032;15.398;2023-11-19T01:47:49;6.57;;;4.63;;
12145;SDS011;6136;47.032;15.398;2023-11-19T01:50:18;7.63;;;4.80;;
12145;SDS011;6136;47.032;15.398;2023-11-19T01:52:47;6.27;;;4.80;;
12145;SDS011;6136;47.032;15.398;2023-11-19T01:55:16;7.17;;;4.80;;
12145;SDS011;6136;47.032;15.398;2023-11-19T01:57:44;7.13;;;4.73;;
12145;SDS011;6136;47.032;15.398;2023-11-19T02:00:14;5.57;;;4.37;;
12145;SDS011;6136;47.032;15.398;2023-11-19T02:02:45;6.17;;;4.67;;
12145;SDS011;6136;47.032;15.398;2023-11-19T02:05:14;6.43;;;4.87;;
12145;SDS011;6136;47.032;15.398;2023-11-19T02:07:43;5.90;;;4.63;;
12145;SDS011;6136;47.032;15.398;2023-11-19T02:10:13;5.93;;;4.93;;
12145;SDS011;6136;47.032;15.398;2023-11-19T02:12:43;7.57;;;5.70;;
12145;SDS011;6136;47.032;15.398;2023-11-19T02:15:12;10.83;;;5.90;;
12145;SDS011;6136;47.032;15.398;2023-11-19T02:17:40;8.23;;;5.20;;
12145;SDS011;6136;47.032;15.398;2023-11-19T02:20:11;9.27;;;5.97;;
12145;SDS011;6136;47.032;15.398;2023-11-19T02:22:41;8.07;;;5.57;;
12145;SDS011;6136;47.032;15.398;2023-11-19T02:25:12;6.77;;;4.93;;
12145;SDS011;6136;47.032;15.398;2023-11-19T02:27:56;5.23;;;4.43;;
12145;SDS011;6136;47.032;15.398;2023-11-19T02:30:26;5.83;;;4.53;;
12145;SDS011;6136;47.032;15.398;2023-11-19T02:32:55;5.00;;;4.43;;
12145;SDS011;6136;47.032;15.398;2023-11-19T02:35:25;5.53;;;4.80;;
12145;SDS011;6136;47.032;15.398;2023-11-19T02:37:54;7.07;;;4.50;;
12145;SDS011;6136;47.032;15.398;2023-11-19T02:40:23;5.30;;;4.80;;
12145;SDS011;6136;47.032;15.398;2023-11-19T02:42:51;7.37;;;4.47;;
12145;SDS011;6136;47.032;15.398;2023-11-19T02:45:22;7.53;;;5.30;;
12145;SDS011;6136;47.032;15.398;2023-11-19T02:47:52;6.67;;;4.27;;
12145;SDS011;6136;47.032;15.398;2023-11-19T02:50:21;7.00;;;5.23;;
12145;SDS011;6136;47.032;15.398;2023-11-19T02:52:53;5.17;;;4.40;;
12145;SDS011;6136;47.032;15.398;2023-11-19T02:55:24;8.87;;;4.40;;
12145;SDS011;6136;47.032;15.398;2023-11-19T02:57:55;6.10;;;4.90;;
12145;SDS011;6136;47.032;15.398;2023-11-19T03:00:27;7.80;;;4.40;;
12145;SDS011;6136;47.032;15.398;2023-11-19T03:03:02;6.40;;;4.40;;
12145;SDS011;6136;47.032;15.398;2023-11-19T03:05:45;6.43;;;4.57;;
12145;SDS011;6136;47.032;15.398;2023-11-19T03:08:14;5.80;;;4.23;;
12145;SDS011;6136;47.032;15.398;2023-11-19T03:10:46;7.77;;;4.87;;
12145;SDS011;6136;47.032;15.398;2023-11-19T03:13:14;6.07;;;4.93;;
12145;SDS011;6136;47.032;15.398;2023-11-19T03:15:45;6.60;;;4.97;;
12145;SDS011;6136;47.032;15.398;2023-11-19T03:18:14;5.13;;;4.07;;
12145;SDS011;6136;47.032;15.398;2023-11-19T03:20:42;6.13;;;4.87;;
12145;SDS011;6136;47.032;15.398;2023-11-19T03:23:11;7.70;;;4.57;;
12145;SDS011;6136;47.032;15.398;2023-11-19T03:25:39;6.30;;;4.87;;
12145;SDS011;6136;47.032;15.398;2023-11-19T03:28:07;8.10;;;5.23;;
12145;SDS011;6136;47.032;15.398;2023-11-19T03:30:35;5.13;;;4.63;;
12145;SDS011;6136;47.032;15.398;2023-11-19T03:33:06;7.33;;;5.40;;
12145;SDS011;6136;47.032;15.398;2023-11-19T03:35:34;5.87;;;4.97;;
12145;SDS011;6136;47.032;15.398;2023-11-19T03:38:03;6.50;;;5.13;;
12145;SDS011;6136;47.032;15.398;2023-11-19T03:40:31;6.37;;;4.77;;
12145;SDS011;6136;47.032;15.398;2023-11-19T03:42:59;7.57;;;4.93;;
12145;SDS011;6136;47.032;15.398;2023-11-19T03:45:28;6.80;;;5.20;;
12145;SDS011;6136;47.032;15.398;2023-11-19T03:47:56;7.07;;;5.00;;
12145;SDS011;6136;47.032;15.398;2023-11-19T03:50:26;5.93;;;4.90;;
12145;SDS011;6136;47.032;15.398;2023-11-19T03:52:54;10.13;;;6.07;;
12145;SDS011;6136;47.032;15.398;2023-11-19T03:55:23;7.73;;;5.10;;
12145;SDS011;6136;47.032;15.398;2023-11-19T03:57:51;5.97;;;4.83;;
12145;SDS011;6136;47.032;15.398;2023-11-19T04:00:20;6.53;;;5.07;;
12145;SDS011;6136;47.032;15.398;2023-11-19T04:02:48;7.97;;;5.57;;
12145;SDS011;6136;47.032;15.398;2023-11-19T04:05:17;8.00;;;5.37;;
12145;SDS011;6136;47.032;15.398;2023-11-19T04:07:47;7.37;;;5.57;;
12145;SDS011;6136;47.032;15.398;2023-11-19T04:10:16;6.47;;;5.23;;
12145;SDS011;6136;47.032;15.398;2023-11-19T04:12:45;6.30;;;5.20;;
12145;SDS011;6136;47.032;15.398;2023-11-19T04:15:13;7.33;;;4.90;;
12145;SDS011;6136;47.032;15.398;2023-11-19T04:17:42;6.47;;;5.47;;
12145;SDS011;6136;47.032;15.398;2023-11-19T04:20:11;7.10;;;5.10;;
12145;SDS011;6136;47.032;15.398;2023-11-19T04:22:41;7.13;;;5.30;;
12145;SDS011;6136;47.032;15.398;2023-11-19T04:25:10;6.83;;;5.10;;
12145;SDS011;6136;47.032;15.398;2023-11-19T04:27:39;6.60;;;5.10;;
12145;SDS011;6136;47.032;15.398;2023-11-19T04:30:08;5.90;;;4.67;;
12145;SDS011;6136;47.032;15.398;2023-11-19T04:32:38;5.93;;;5.33;;
12145;SDS011;6136;47.032;15.398;2023-11-19T04:35:07;7.70;;;5.20;;
12145;SDS011;6136;47.032;15.398;2023-11-19T04:37:36;6.67;;;5.10;;
12145;SDS011;6136;47.032;15.398;2023-11-19T04:40:06;6.10;;;5.13;;
12145;SDS011;6136;47.032;15.398;2023-11-19T04:42:37;8.30;;;5.10;;
12145;SDS011;6136;47.032;15.398;2023-11-19T04:45:07;7.50;;;5.07;;
12145;SDS011;6136;47.032;15.398;2023-11-19T04:47:37;6.73;;;5.17;;
12145;SDS011;6136;47.032;15.398;2023-11-19T04:50:05;7.17;;;5.40;;
12145;SDS011;6136;47.032;15.398;2023-11-19T04:52:37;7.17;;;5.37;;
12145;SDS011;6136;47.032;15.398;2023-11-19T04:55:09;7.67;;;5.47;;
12145;SDS011;6136;47.032;15.398;2023-11-19T04:57:40;8.40;;;5.87;;
12145;SDS011;6136;47.032;15.398;2023-11-19T05:00:10;7.20;;;5.47;;
12145;SDS011;6136;47.032;15.398;2023-11-19T05:02:43;10.17;;;5.30;;
12145;SDS011;6136;47.032;15.398;2023-11-19T05:05:12;7.20;;;5.77;;
12145;SDS011;6136;47.032;15.398;2023-11-19T05:07:40;11.00;;;5.47;;
12145;SDS011;6136;47.032;15.398;2023-11-19T05:10:09;6.97;;;5.47;;
12145;SDS011;6136;47.032;15.398;2023-11-19T05:12:37;9.33;;;6.17;;
12145;SDS011;6136;47.032;15.398;2023-11-19T05:15:10;8.20;;;5.40;;
12145;SDS011;6136;47.032;15.398;2023-11-19T05:17:39;6.80;;;4.93;;
12145;SDS011;6136;47.032;15.398;2023-11-19T05:20:07;5.87;;;5.07;;
12145;SDS011;6136;47.032;15.398;2023-11-19T05:22:40;6.93;;;4.90;;
12145;SDS011;6136;47.032;15.398;2023-11-19T05:25:09;6.10;;;4.60;;
12145;SDS011;6136;47.032;15.398;2023-11-19T05:27:38;6.47;;;5.37;;
12145;SDS011;6136;47.032;15.398;2023-11-19T05:30:06;6.70;;;5.10;;
12145;SDS011;6136;47.032;15.398;2023-11-19T05:32:39;6.60;;;5.43;;
12145;SDS011;6136;47.032;15.398;2023-11-19T05:35:07;8.83;;;5.43;;
12145;SDS011;6136;47.032;15.398;2023-11-19T05:37:36;7.43;;;5.23;;
12145;SDS011;6136;47.032;15.398;2023-11-19T05:40:05;7.83;;;4.93;;
12145;SDS011;6136;47.032;15.398;2023-11-19T05:42:42;7.27;;;5.07;;
12145;SDS011;6136;47.032;15.398;2023-11-19T05:45:11;5.40;;;4.47;;
12145;SDS011;6136;47.032;15.398;2023-11-19T05:47:41;6.83;;;5.33;;
12145;SDS011;6136;47.032;15.398;2023-11-19T05:50:10;6.20;;;5.03;;
12145;SDS011;6136;47.032;15.398;2023-11-19T05:52:39;7.10;;;5.10;;
12145;SDS011;6136;47.032;15.398;2023-11-19T05:55:07;6.93;;;5.43;;
12145;SDS011;6136;47.032;15.398;2023-11-19T05:57:37;10.30;;;6.03;;
12145;SDS011;6136;47.032;15.398;2023-11-19T06:00:09;6.27;;;5.17;;
12145;SDS011;6136;47.032;15.398;2023-11-19T06:02:40;7.13;;;4.70;;
12145;SDS011;6136;47.032;15.398;2023-11-19T06:05:09;8.10;;;5.67;;
12145;SDS011;6136;47.032;15.398;2023-11-19T06:07:38;6.77;;;5.60;;
12145;SDS011;6136;47.032;15.398;2023-11-19T06:10:08;6.83;;;5.53;;
12145;SDS011;6136;47.032;15.398;2023-11-19T06:12:37;6.93;;;5.23;;
12145;SDS011;6136;47.032;15.398;2023-11-19T06:15:08;7.40;;;5.13;;
12145;SDS011;6136;47.032;15.398;2023-11-19T06:17:36;5.50;;;4.63;;
12145;SDS011;6136;47.032;15.398;2023-11-19T06:20:07;7.07;;;5.43;;
12145;SDS011;6136;47.032;15.398;2023-11-19T06:22:38;7.87;;;5.47;;
12145;SDS011;6136;47.032;15.398;2023-11-19T06:25:08;6.53;;;5.40;;
12145;SDS011;6136;47.032;15.398;2023-11-19T06:27:37;6.67;;;5.20;;
12145;SDS011;6136;47.032;15.398;2023-11-19T06:30:06;9.50;;;4.90;;
12145;SDS011;6136;47.032;15.398;2023-11-19T06:32:35;6.23;;;5.63;;
12145;SDS011;6136;47.032;15.398;2023-11-19T06:35:04;5.73;;;5.13;;
12145;SDS011;6136;47.032;15.398;2023-11-19T06:37:34;8.57;;;5.87;;
12145;SDS011;6136;47.032;15.398;2023-11-19T06:40:03;11.57;;;5.40;;
12145;SDS011;6136;47.032;15.398;2023-11-19T06:42:32;8.10;;;4.63;;
12145;SDS011;6136;47.032;15.398;2023-11-19T06:45:01;7.33;;;5.33;;
12145;SDS011;6136;47.032;15.398;2023-11-19T06:47:29;8.97;;;5.33;;
12145;SDS011;6136;47.032;15.398;2023-11-19T06:49:58;6.73;;;5.57;;
12145;SDS011;6136;47.032;15.398;2023-11-19T06:52:26;7.17;;;5.73;;
12145;SDS011;6136;47.032;15.398;2023-11-19T06:54:56;7.83;;;5.40;;
12145;SDS011;6136;47.032;15.398;2023-11-19T06:57:27;8.90;;;5.13;;
12145;SDS011;6136;47.032;15.398;2023-11-19T06:59:56;9.30;;;5.43;;
12145;SDS011;6136;47.032;15.398;2023-11-19T07:02:25;10.93;;;6.20;;
12145;SDS011;6136;47.032;15.398;2023-11-19T07:04:53;9.53;;;5.40;;
12145;SDS011;6136;47.032;15.398;2023-11-19T07:07:22;9.50;;;5.93;;
12145;SDS011;6136;47.032;15.398;2023-11-19T07:09:50;7.87;;;5.53;;
12145;SDS011;6136;47.032;15.398;2023-11-19T07:12:20;7.43;;;5.63;;
12145;SDS011;6136;47.032;15.398;2023-11-19T07:14:53;5.97;;;4.87;;
12145;SDS011;6136;47.032;15.398;2023-11-19T07:17:22;7.87;;;5.30;;
12145;SDS011;6136;47.032;15.398;2023-11-19T07:19:51;6.97;;;5.20;;
12145;SDS011;6136;47.032;15.398;2023-11-19T07:22:21;5.87;;;4.80;;
12145;SDS011;6136;47.032;15.398;2023-11-19T07:24:49;8.40;;;5.30;;
12145;SDS011;6136;47.032;15.398;2023-11-19T07:27:17;8.67;;;5.67;;
12145;SDS011;6136;47.032;15.398;2023-11-19T07:29:47;8.27;;;5.47;;
12145;SDS011;6136;47.032;15.398;2023-11-19T07:32:15;9.47;;;5.63;;
12145;SDS011;6136;47.032;15.398;2023-11-19T07:34:44;8.20;;;5.60;;
12145;SDS011;6136;47.032;15.398;2023-11-19T07:37:13;9.43;;;5.47;;
12145;SDS011;6136;47.032;15.398;2023-11-19T07:39:41;5.97;;;5.27;;
12145;SDS011;6136;47.032;15.398;2023-11-19T07:42:09;5.87;;;4.57;;
12145;SDS011;6136;47.032;15.398;2023-11-19T07:44:37;6.90;;;5.73;;
12145;SDS011;6136;47.032;15.398;2023-11-19T07:47:07;11.03;;;6.07;;
12145;SDS011;6136;47.032;15.398;2023-11-19T07:49:36;8.57;;;5.70;;
12145;SDS011;6136;47.032;15.398;2023-11-19T07:52:05;7.73;;;5.57;;
12145;SDS011;6136;47.032;15.398;2023-11-19T07:54:47;10.43;;;6.63;;
12145;SDS011;6136;47.032;15.398;2023-11-19T07:57:15;7.57;;;5.67;;
12145;SDS011;6136;47.032;15.398;2023-11-19T07:59:44;7.37;;;5.73;;
12145;SDS011;6136;47.032;15.398;2023-11-19T08:02:14;9.93;;;5.90;;
12145;SDS011;6136;47.032;15.398;2023-11-19T08:04:42;8.47;;;5.20;;
12145;SDS011;6136;47.032;15.398;2023-11-19T08:07:12;7.03;;;5.40;;
12145;SDS011;6136;47.032;15.398;2023-11-19T08:09:41;12.60;;;6.43;;
12145;SDS011;6136;47.032;15.398;2023-11-19T08:12:09;9.83;;;6.40;;
12145;SDS011;6136;47.032;15.398;2023-11-19T08:14:37;6.97;;;5.00;;
12145;SDS011;6136;47.032;15.398;2023-11-19T08:17:05;9.17;;;5.77;;
12145;SDS011;6136;47.032;15.398;2023-11-19T08:19:35;8.60;;;5.63;;
12145;SDS011;6136;47.032;15.398;2023-11-19T08:22:04;8.03;;;5.93;;
12145;SDS011;6136;47.032;15.398;2023-11-19T08:24:32;9.47;;;5.67;;
12145;SDS011;6136;47.032;15.398;2023-11-19T08:27:01;8.10;;;5.43;;
12145;SDS011;6136;47.032;15.398;2023-11-19T08:29:29;11.50;;;7.80;;
12145;SDS011;6136;47.032;15.398;2023-11-19T08:31:59;8.70;;;6.00;;
12145;SDS011;6136;47.032;15.398;2023-11-19T08:34:29;8.17;;;5.63;;
12145;SDS011;6136;47.032;15.398;2023-11-19T08:36:59;6.63;;;5.37;;
12145;SDS011;6136;47.032;15.398;2023-11-19T08:39:28;7.47;;;5.03;;
12145;SDS011;6136;47.032;15.398;2023-11-19T08:41:57;7.50;;;5.47;;
12145;SDS011;6136;47.032;15.398;2023-11-19T08:44:25;11.07;;;5.83;;
12145;SDS011;6136;47.032;15.398;2023-11-19T08:46:54;7.10;;;5.43;;
12145;SDS011;6136;47.032;15.398;2023-11-19T08:49:22;9.50;;;5.73;;
12145;SDS011;6136;47.032;15.398;2023-11-19T08:51:51;6.73;;;5.53;;
12145;SDS011;6136;47.032;15.398;2023-11-19T08:54:21;5.30;;;4.23;;
12145;SDS011;6136;47.032;15.398;2023-11-19T08:56:49;5.00;;;3.83;;
12145;SDS011;6136;47.032;15.398;2023-11-19T08:59:18;5.30;;;3.83;;
12145;SDS011;6136;47.032;15.398;2023-11-19T09:01:46;4.37;;;3.43;;
12145;SDS011;6136;47.032;15.398;2023-11-19T09:04:15;5.03;;;3.37;;
12145;SDS011;6136;47.032;15.398;2023-11-19T09:06:44;4.43;;;3.30;;
12145;SDS011;6136;47.032;15.398;2023-11-19T09:09:12;3.77;;;2.77;;
12145;SDS011;6136;47.032;15.398;2023-11-19T09:11:42;5.50;;;3.03;;
12145;SDS011;6136;47.032;15.398;2023-11-19T09:14:10;4.13;;;3.70;;
12145;SDS011;6136;47.032;15.398;2023-11-19T09:16:39;4.63;;;4.07;;
12145;SDS011;6136;47.032;15.398;2023-11-19T09:19:08;4.50;;;3.80;;
12145;SDS011;6136;47.032;15.398;2023-11-19T09:21:37;3.60;;;3.30;;
12145;SDS011;6136;47.032;15.398;2023-11-19T09:24:06;5.87;;;4.00;;
12145;SDS011;6136;47.032;15.398;2023-11-19T09:26:37;5.80;;;4.37;;
12145;SDS011;6136;47.032;15.398;2023-11-19T09:29:09;4.53;;;3.17;;
12145;SDS011;6136;47.032;15.398;2023-11-19T09:31:41;3.37;;;3.07;;
12145;SDS011;6136;47.032;15.398;2023-11-19T09:34:09;4.83;;;3.93;;
12145;SDS011;6136;47.032;15.398;2023-11-19T09:36:38;4.10;;;2.90;;
12145;SDS011;6136;47.032;15.398;2023-11-19T09:39:10;5.53;;;3.40;;
12145;SDS011;6136;47.032;15.398;2023-11-19T09:41:39;3.83;;;3.43;;
12145;SDS011;6136;47.032;15.398;2023-11-19T09:44:10;7.50;;;3.47;;
12145;SDS011;6136;47.032;15.398;2023-11-19T09:46:39;3.37;;;2.87;;
12145;SDS011;6136;47.032;15.398;2023-11-19T09:49:09;3.37;;;2.80;;
12145;SDS011;6136;47.032;15.398;2023-11-19T09:51:38;3.43;;;3.10;;
12145;SDS011;6136;47.032;15.398;2023-11-19T09:54:06;4.43;;;3.30;;
12145;SDS011;6136;47.032;15.398;2023-11-19T09:56:36;4.73;;;3.77;;
12145;SDS011;6136;47.032;15.398;2023-11-19T09:59:06;3.70;;;3.27;;
12145;SDS011;6136;47.032;15.398;2023-11-19T10:01:38;5.53;;;3.80;;
12145;SDS011;6136;47.032;15.398;2023-11-19T10:04:07;5.63;;;3.93;;
12145;SDS011;6136;47.032;15.398;2023-11-19T10:06:37;5.07;;;3.40;;
12145;SDS011;6136;47.032;15.398;2023-11-19T10:09:06;4.27;;;3.43;;
12145;SDS011;6136;47.032;15.398;2023-11-19T10:11:34;4.67;;;3.63;;
12145;SDS011;6136;47.032;15.398;2023-11-19T10:14:02;5.33;;;3.87;;
12145;SDS011;6136;47.032;15.398;2023-11-19T10:16:31;5.17;;;3.73;;
12145;SDS011;6136;47.032;15.398;2023-11-19T10:19:03;5.10;;;3.67;;
12145;SDS011;6136;47.032;15.398;2023-11-19T10:21:32;4.33;;;3.50;;
12145;SDS011;6136;47.032;15.398;2023-11-19T10:24:01;4.23;;;2.97;;
12145;SDS011;6136;47.032;15.398;2023-11-19T10:26:29;3.70;;;3.20;;
12145;SDS011;6136;47.032;15.398;2023-11-19T10:29:00;5.30;;;3.83;;
12145;SDS011;6136;47.032;15.398;2023-11-19T10:31:28;5.87;;;3.90;;
12145;SDS011;6136;47.032;15.398;2023-11-19T10:33:56;6.67;;;3.77;;
12145;SDS011;6136;47.032;15.398;2023-11-19T10:36:38;4.33;;;3.47;;
12145;SDS011;6136;47.032;15.398;2023-11-19T10:39:08;3.83;;;3.43;;
12145;SDS011;6136;47.032;15.398;2023-11-19T10:41:36;4.70;;;3.70;;
12145;SDS011;6136;47.032;15.398;2023-11-19T10:44:05;7.53;;;3.93;;
12145;SDS011;6136;47.032;15.398;2023-11-19T10:46:39;8.20;;;4.10;;
12145;SDS011;6136;47.032;15.398;2023-11-19T10:49:08;5.73;;;3.90;;
12145;SDS011;6136;47.032;15.398;2023-11-19T10:51:39;6.23;;;3.90;;
12145;SDS011;6136;47.032;15.398;2023-11-19T10:54:12;5.30;;;3.83;;
12145;SDS011;6136;47.032;15.398;2023-11-19T10:56:47;4.97;;;3.93;;
12145;SDS011;6136;47.032;15.398;2023-11-19T10:59:22;5.33;;;4.30;;
12145;SDS011;6136;47.032;15.398;2023-11-19T11:01:57;5.67;;;4.43;;
12145;SDS011;6136;47.032;15.398;2023-11-19T11:04:27;5.27;;;4.37;;
12145;SDS011;6136;47.032;15.398;2023-11-19T11:06:59;4.77;;;4.23;;
12145;SDS011;6136;47.032;15.398;2023-11-19T11:09:29;7.50;;;4.87;;
12145;SDS011;6136;47.032;15.398;2023-11-19T11:11:58;5.47;;;4.60;;
12145;SDS011;6136;47.032;15.398;2023-11-19T11:14:27;6.17;;;4.87;;
12145;SDS011;6136;47.032;15.398;2023-11-19T11:16:56;5.40;;;4.77;;
12145;SDS011;6136;47.032;15.398;2023-11-19T11:19:26;4.47;;;4.03;;
12145;SDS011;6136;47.032;15.398;2023-11-19T11:21:54;6.63;;;4.70;;
12145;SDS011;6136;47.032;15.398;2023-11-19T11:30:20;7.87;;;4.37;;
12145;SDS011;6136;47.032;15.398;2023-11-19T11:33:06;5.70;;;4.60;;
12145;SDS011;6136;47.032;15.398;2023-11-19T11:35:49;7.13;;;4.60;;
12145;SDS011;6136;47.032;15.398;2023-11-19T11:38:22;5.50;;;4.10;;
12145;SDS011;6136;47.032;15.398;2023-11-19T11:43:46;4.47;;;3.93;;
12145;SDS011;6136;47.032;15.398;2023-11-19T11:49:26;6.50;;;5.20;;
12145;SDS011;6136;47.032;15.398;2023-11-19T11:52:00;7.27;;;5.03;;
12145;SDS011;6136;47.032;15.398;2023-11-19T11:54:30;5.53;;;4.20;;
12145;SDS011;6136;47.032;15.398;2023-11-19T11:59:48;6.17;;;4.53;;
12145;SDS011;6136;47.032;15.398;2023-11-19T12:02:18;5.20;;;4.10;;
12145;SDS011;6136;47.032;15.398;2023-11-19T12:04:48;5.67;;;4.13;;
12145;SDS011;6136;47.032;15.398;2023-11-19T12:07:18;5.00;;;4.10;;
12145;SDS011;6136;47.032;15.398;2023-11-19T12:09:48;4.97;;;4.23;;
12145;SDS011;6136;47.032;15.398;2023-11-19T12:12:27;4.20;;;3.80;;
12145;SDS011;6136;47.032;15.398;2023-11-19T12:15:00;4.83;;;4.20;;
12145;SDS011;6136;47.032;15.398;2023-11-19T12:17:37;8.83;;;6.43;;
12145;SDS011;6136;47.032;15.398;2023-11-19T12:20:17;6.77;;;3.90;;
12145;SDS011;6136;47.032;15.398;2023-11-19T12:22:49;5.00;;;3.90;;
12145;SDS011;6136;47.032;15.398;2023-11-19T12:25:18;4.67;;;3.40;;
12145;SDS011;6136;47.032;15.398;2023-11-19T12:27:50;5.93;;;4.30;;
12145;SDS011;6136;47.032;15.398;2023-11-19T12:30:21;7.20;;;4.37;;
12145;SDS011;6136;47.032;15.398;2023-11-19T12:32:51;5.67;;;3.63;;
12145;SDS011;6136;47.032;15.398;2023-11-19T12:35:21;5.00;;;3.70;;
12145;SDS011;6136;47.032;15.398;2023-11-19T12:37:50;6.37;;;3.83;;
12145;SDS011;6136;47.032;15.398;2023-11-19T12:40:20;5.47;;;4.30;;
12145;SDS011;6136;47.032;15.398;2023-11-19T12:42:52;3.70;;;3.23;;
12145;SDS011;6136;47.032;15.398;2023-11-19T12:45:21;3.40;;;3.03;;
12145;SDS011;6136;47.032;15.398;2023-11-19T12:48:03;7.63;;;3.63;;
12145;SDS011;6136;47.032;15.398;2023-11-19T12:53:20;4.40;;;3.27;;
12145;SDS011;6136;47.032;15.398;2023-11-19T12:55:48;4.20;;;3.33;;
12145;SDS011;6136;47.032;15.398;2023-11-19T12:58:31;4.33;;;3.40;;
12145;SDS011;6136;47.032;15.398;2023-11-19T13:01:02;3.47;;;3.17;;
12145;SDS011;6136;47.032;15.398;2023-11-19T13:03:32;4.27;;;3.30;;
12145;SDS011;6136;47.032;15.398;2023-11-19T13:06:02;4.63;;;3.77;;
12145;SDS011;6136;47.032;15.398;2023-11-19T13:08:35;4.17;;;3.30;;
12145;SDS011;6136;47.032;15.398;2023-11-19T13:11:06;4.23;;;3.67;;
12145;SDS011;6136;47.032;15.398;2023-11-19T13:13:56;4.23;;;3.83;;
12145;SDS011;6136;47.032;15.398;2023-11-19T13:16:26;3.97;;;3.50;;
12145;SDS011;6136;47.032;15.398;2023-11-19T13:18:56;5.40;;;3.80;;
12145;SDS011;6136;47.032;15.398;2023-11-19T13:21:24;4.93;;;3.90;;
12145;SDS011;6136;47.032;15.398;2023-11-19T13:23:53;4.60;;;3.70;;
12145;SDS011;6136;47.032;15.398;2023-11-19T13:26:22;5.57;;;4.00;;
12145;SDS011;6136;47.032;15.398;2023-11-19T13:28:51;7.50;;;4.10;;
12145;SDS011;6136;47.032;15.398;2023-11-19T13:31:21;4.33;;;3.93;;
12145;SDS011;6136;47.032;15.398;2023-11-19T13:33:50;3.97;;;3.43;;
12145;SDS011;6136;47.032;15.398;2023-11-19T13:36:19;4.07;;;3.00;;
12145;SDS011;6136;47.032;15.398;2023-11-19T13:38:47;5.80;;;4.00;;
12145;SDS011;6136;47.032;15.398;2023-11-19T13:41:16;5.57;;;3.77;;
12145;SDS011;6136;47.032;15.398;2023-11-19T13:43:44;5.13;;;3.53;;
12145;SDS011;6136;47.032;15.398;2023-11-19T13:46:13;4.47;;;3.40;;
12145;SDS011;6136;47.032;15.398;2023-11-19T13:48:43;4.43;;;3.40;;
12145;SDS011;6136;47.032;15.398;2023-11-19T13:51:11;6.00;;;3.83;;
12145;SDS011;6136;47.032;15.398;2023-11-19T13:53:40;4.30;;;3.70;;
12145;SDS011;6136;47.032;15.398;2023-11-19T13:56:11;4.53;;;3.50;;
12145;SDS011;6136;47.032;15.398;2023-11-19T13:58:39;6.63;;;4.50;;
12145;SDS011;6136;47.032;15.398;2023-11-19T14:01:08;4.77;;;3.87;;
12145;SDS011;6136;47.032;15.398;2023-11-19T14:03:36;3.93;;;3.43;;
12145;SDS011;6136;47.032;15.398;2023-11-19T14:06:07;4.67;;;3.93;;
12145;SDS011;6136;47.032;15.398;2023-11-19T14:08:36;4.33;;;3.30;;
12145;SDS011;6136;47.032;15.398;2023-11-19T14:11:05;5.00;;;3.97;;
12145;SDS011;6136;47.032;15.398;2023-11-19T14:13:33;4.13;;;3.53;;
12145;SDS011;6136;47.032;15.398;2023-11-19T14:16:02;5.33;;;3.40;;
12145;SDS011;6136;47.032;15.398;2023-11-19T14:18:33;5.47;;;3.80;;
12145;SDS011;6136;47.032;15.398;2023-11-19T14:21:02;4.37;;;3.27;;
12145;SDS011;6136;47.032;15.398;2023-11-19T14:23:33;4.03;;;3.53;;
12145;SDS011;6136;47.032;15.398;2023-11-19T14:26:01;5.33;;;3.50;;
12145;SDS011;6136;47.032;15.398;2023-11-19T14:28:29;4.07;;;3.50;;
12145;SDS011;6136;47.032;15.398;2023-11-19T14:30:58;4.77;;;3.80;;
12145;SDS011;6136;47.032;15.398;2023-11-19T14:33:26;7.57;;;4.20;;
12145;SDS011;6136;47.032;15.398;2023-11-19T14:35:55;6.57;;;4.57;;
12145;SDS011;6136;47.032;15.398;2023-11-19T14:38:23;8.73;;;5.10;;
12145;SDS011;6136;47.032;15.398;2023-11-19T14:40:53;6.37;;;4.63;;
12145;SDS011;6136;47.032;15.398;2023-11-19T14:43:21;7.47;;;5.40;;
12145;SDS011;6136;47.032;15.398;2023-11-19T14:45:51;6.23;;;4.87;;
12145;SDS011;6136;47.032;15.398;2023-11-19T14:48:22;6.90;;;5.10;;
12145;SDS011;6136;47.032;15.398;2023-11-19T14:50:50;7.93;;;5.63;;
12145;SDS011;6136;47.032;15.398;2023-11-19T14:53:19;7.43;;;5.23;;
12145;SDS011;6136;47.032;15.398;2023-11-19T14:55:47;6.60;;;4.80;;
12145;SDS011;6136;47.032;15.398;2023-11-19T14:58:17;6.07;;;4.77;;
12145;SDS011;6136;47.032;15.398;2023-11-19T15:00:46;6.00;;;4.33;;
12145;SDS011;6136;47.032;15.398;2023-11-19T15:03:16;5.17;;;4.33;;
12145;SDS011;6136;47.032;15.398;2023-11-19T15:05:46;8.03;;;4.30;;
12145;SDS011;6136;47.032;15.398;2023-11-19T15:08:14;5.03;;;3.97;;
12145;SDS011;6136;47.032;15.398;2023-11-19T15:10:44;5.43;;;4.20;;
12145;SDS011;6136;47.032;15.398;2023-11-19T15:13:14;6.93;;;3.80;;
12145;SDS011;6136;47.032;15.398;2023-11-19T15:15:43;5.03;;;3.80;;
12145;SDS011;6136;47.032;15.398;2023-11-19T15:18:12;5.67;;;4.10;;
12145;SDS011;6136;47.032;15.398;2023-11-19T15:20:41;5.10;;;3.37;;